KFSW

Fort Madison Municipal Airport

Fort Madison, Iowa, USA
METAR KFSW 221435Z AUTO 26006KT 10SM CLR 12/06 A3010 RMK AO2
Observed Flight Rules
Oct-22 @ 14:35 UTC (17 minutes ago) Visual Flight Rules
Wind Visibility Clouds
260° at 6 knots 10 miles
  • Clear skies
Temperatures Readings
Current 12°C / 54°F
Dewpoint 6°C / 43°F
Humidity 67%
Altimeter 30.1" Hg
Pressure 1019 hPa
Elevation 221
METAR KFSW 221435Z AUTO 26006KT 10SM CLR 12/06 A3010 RMK AO2
Observed Flight Rules
Oct-22 @ 14:35 UTC
(17 minutes ago)
VFR
Wind Visibility
260° at 6 knots 10 miles
Clouds
  • Clear skies
Temperature Dewpoint
12°C / 54°F 6°C / 43°F
Humidity Altimeter Pressure
67% 30.1" Hg 1019 hPa